Gateway, Minnesota
Current Conditions -  °F | °C
As of 7:55 AM on Thursday 27 Nov 2014 (Local Time) from KINL Reporting Station
Clear Clear  
Wind Chill: -19°   Ceiling: Unl
Heat Index: -19°   Visibility: 10mi
Dew Point: -25°   Wind: 0mph
Humidity: 74%   Direction: NA
Pressure: 30.44"   Gusts: NA
Location:  48.5197°N, 92.902°W
Report Text: KINL 271355Z AUTO 00000KT 10SM CLR M28/M32 A3044 RMK AO2 SLP355 T12831317 $
Loading
Personal Weather Stations






























Interactive Weather Map New forecast layout! Learn more

10-Day Weather Forecast

Advertisements
Track Severe Weather on mobile